METAR Formatted Surface Weather Observation
Issued by NWS

Current Version | Previous Version | Text Only | Print | Product List | Glossary On
Versions: 1 2 3 4 5 6 7 8 9 10 11 12 13 14 15 16 17 18 19
000
SAUS41 KLWX 210553
MTRNHK
METAR KNHK 210552Z AUTO 20005KT 10SM CLR 07/M02 A3020 RMK AO2 SLP228
T00671017 10072 20022 58001



USA.gov is the U.S. government's official web portal to all federal, state and local government web resources and services.